createdAt,value
2023-08-05T00:01:43.020Z,98.0
2023-08-05T00:14:43.008Z,97.0
2023-08-05T00:27:43.022Z,97.0
2023-08-05T00:40:43.016Z,97.0
2023-08-05T00:53:43.027Z,97.0
2023-08-05T01:06:43.020Z,97.0
2023-08-05T01:19:43.016Z,98.0
2023-08-05T01:32:43.048Z,98.0
2023-08-05T01:45:43.045Z,98.0
2023-08-05T01:58:43.050Z,99.0
2023-08-05T02:11:43.054Z,98.0
2023-08-05T02:24:43.049Z,98.0
2023-08-05T02:37:43.056Z,99.0
2023-08-05T02:50:43.059Z,98.0
2023-08-05T03:03:43.082Z,99.0
2023-08-05T03:16:43.088Z,99.0
2023-08-05T03:29:43.069Z,99.0
2023-08-05T03:42:43.073Z,99.0
2023-08-05T03:55:43.088Z,98.0
2023-08-05T04:08:43.078Z,99.0
2023-08-05T04:21:43.082Z,99.0
2023-08-05T04:34:43.092Z,99.0
2023-08-05T04:47:43.114Z,99.0
2023-08-05T05:00:43.106Z,99.0
2023-08-05T05:13:43.105Z,99.0
2023-08-05T05:26:43.105Z,99.0
2023-08-05T05:39:43.102Z,99.0
2023-08-05T05:52:43.114Z,99.0
2023-08-05T06:05:43.145Z,99.0
2023-08-05T06:18:43.143Z,99.0
2023-08-05T06:31:43.136Z,99.0
2023-08-05T06:44:43.141Z,99.0
2023-08-05T06:57:43.151Z,99.0
2023-08-05T07:10:43.143Z,99.0
2023-08-05T07:23:43.163Z,99.0
2023-08-05T07:36:43.165Z,99.0
2023-08-05T07:49:43.185Z,99.0
2023-08-05T08:02:43.195Z,99.0
2023-08-05T08:15:43.204Z,98.0
2023-08-05T08:28:43.225Z,98.0
2023-08-05T08:41:43.216Z,98.0
2023-08-05T08:54:43.222Z,98.0
2023-08-05T09:07:43.209Z,98.0
2023-08-05T09:20:43.219Z,97.0
2023-08-05T09:33:43.288Z,96.0
2023-08-05T09:46:43.263Z,94.0
2023-08-05T09:59:43.256Z,92.0
2023-08-05T10:12:43.247Z,91.0
2023-08-05T10:25:43.235Z,88.0
2023-08-05T10:38:43.223Z,86.0
2023-08-05T10:51:43.247Z,88.0
2023-08-05T11:04:43.291Z,88.0
2023-08-05T11:17:43.268Z,84.0
2023-08-05T11:30:43.256Z,85.0
2023-08-05T11:43:43.268Z,87.0
2023-08-05T11:56:43.271Z,91.0
2023-08-05T12:09:43.273Z,92.0
2023-08-05T12:22:43.271Z,92.0
2023-08-05T12:35:43.296Z,92.0
2023-08-05T12:48:43.269Z,92.0
2023-08-05T13:01:43.305Z,91.0
2023-08-05T13:14:43.300Z,91.0
2023-08-05T13:27:43.424Z,93.0
2023-08-05T13:40:43.308Z,93.0
2023-08-05T13:53:43.303Z,92.0
2023-08-05T14:06:43.310Z,91.0
2023-08-05T14:19:43.305Z,91.0
2023-08-05T14:32:43.352Z,90.0
2023-08-05T14:45:43.323Z,89.0
2023-08-05T14:58:43.324Z,88.0
2023-08-05T15:11:43.325Z,90.0
2023-08-05T15:24:43.337Z,89.0
2023-08-05T15:37:43.326Z,89.0
2023-08-05T15:50:43.330Z,86.0
2023-08-05T16:03:43.336Z,83.0
2023-08-05T16:16:43.332Z,79.0
2023-08-05T16:29:43.333Z,80.0
2023-08-05T16:42:43.344Z,81.0
2023-08-05T16:55:43.342Z,83.0
2023-08-05T17:08:43.353Z,82.0
2023-08-05T17:21:43.354Z,85.0
2023-08-05T17:34:43.374Z,84.0
2023-08-05T17:47:43.432Z,88.0
2023-08-05T18:00:43.386Z,89.0
2023-08-05T18:13:43.377Z,90.0
2023-08-05T18:26:43.400Z,91.0
2023-08-05T18:39:43.385Z,93.0
2023-08-05T18:52:43.400Z,94.0
2023-08-05T19:05:43.394Z,96.0
2023-08-05T19:18:43.415Z,96.0
2023-08-05T19:31:43.453Z,96.0
2023-08-05T19:44:43.417Z,96.0
2023-08-05T19:57:43.410Z,95.0
2023-08-05T20:10:43.422Z,96.0
2023-08-05T20:23:43.425Z,94.0
2023-08-05T20:36:43.433Z,95.0
2023-08-05T20:49:43.433Z,95.0
2023-08-05T21:02:43.470Z,95.0
2023-08-05T21:15:43.446Z,96.0
2023-08-05T21:28:43.456Z,96.0
2023-08-05T21:41:43.436Z,97.0
2023-08-05T21:54:43.453Z,97.0
2023-08-05T22:07:43.463Z,97.0
2023-08-05T22:20:43.473Z,98.0
2023-08-05T22:33:43.458Z,98.0
2023-08-05T22:46:43.484Z,98.0
2023-08-05T22:59:43.474Z,98.0
2023-08-05T23:12:43.469Z,98.0
2023-08-05T23:25:43.470Z,98.0
2023-08-05T23:38:43.476Z,97.0
2023-08-05T23:51:43.494Z,97.0
